METAR Data
IDs: Format: Raw Decoded Include TAF

Data at: 1323 UTC 24 Jan 2021

KMXO 241315Z AUTO 00000KT 8SM FEW023 SCT036 OVC060 M03/M03 A3002 RMK AO2
KMXO 241255Z AUTO 00000KT 8SM FEW023 SCT027 BKN032 M03/M03 A3002 RMK AO2
KMXO 241235Z AUTO 12003KT 8SM OVC031 M03/M03 A3002 RMK AO2
KMXO 241215Z AUTO 00000KT 9SM BKN032 OVC065 M03/M03 A3002 RMK AO2
KMXO 241155Z AUTO 00000KT 5SM BR OVC065 M03/M03 A3002 RMK AO2
KMXO 241135Z AUTO 15003KT 4SM -SN FEW007 BKN023 OVC060 M03/M03 A3002 RMK AO2
KMXO 241115Z AUTO 14005KT 3SM -SN FEW008 BKN021 BKN032 M03/M03 A3002 RMK AO2
KMXO 241055Z AUTO 13006KT 3SM -SN FEW012 SCT020 BKN029 M03/M03 A3002 RMK AO2
KMXO 241035Z AUTO 13005KT 4SM -UP FEW009 BKN022 OVC035 M03/M03 A3003 RMK AO2
KMXO 241015Z AUTO 13004KT 10SM FEW008 SCT036 OVC075 M03/M03 A3002 RMK AO2
KMXO 240955Z AUTO 14006KT 9SM OVC075 M03/M03 A3002 RMK AO2
KMXO 240935Z AUTO 13005KT 4SM -SN FEW017 FEW029 SCT080 M03/M03 A3003 RMK AO2
KMXO 240915Z AUTO 13007KT 3SM -SN FEW002 BKN018 BKN028 M03/M03 A3004 RMK AO2
KMXO 240855Z AUTO 14008KT 3/4SM -SN OVC002 M03/M03 A3005 RMK AO2
KMXO 240835Z AUTO 14008KT 3/4SM -SN OVC002 M03/M03 A3005 RMK AO2
KMXO 240815Z AUTO 13009KT 100V160 1 1/4SM -SN BKN003 M03/M03 A3005 RMK AO2
KMXO 240755Z AUTO 14007KT 1 1/4SM -SN BKN003 M03/M03 A3006 RMK AO2
KMXO 240735Z AUTO 13009KT 1 1/4SM -SN SCT003 SCT024 M03/M03 A3005 RMK AO2
KMXO 240715Z AUTO 14009KT 3/4SM -SN BKN003 BKN021 OVC047 M03/M03 A3006 RMK AO2
KMXO 240655Z AUTO 13009KT 1 3/4SM -SN SCT003 SCT016 OVC047 M04/M03 A3006 RMK AO2
KMXO 240635Z AUTO 13010KT 1 1/2SM -SN BKN003 BKN016 OVC055 M04/M04 A3007 RMK AO2
KMXO 240615Z AUTO 12008KT 1 1/4SM -SN BKN003 OVC022 M04/M04 A3008 RMK AO2
KMXO 240555Z AUTO 13011G16KT 1 1/2SM -SN SCT004 BKN024 OVC055 M04/M04 A3008 RMK AO2
KMXO 240535Z AUTO 13011KT 8SM FEW022 BKN029 OVC055 M04/M04 A3008 RMK AO2
KMXO 240515Z AUTO 13012KT 4SM -UP SCT024 BKN028 OVC034 M04/M05 A3008 RMK AO2
KMXO 240455Z AUTO 13012KT 9SM BKN023 BKN027 OVC045 M03/M06 A3008 RMK AO2
KMXO 240435Z AUTO 12013KT 9SM FEW018 SCT024 BKN032 M04/M06 A3008 RMK AO2
KMXO 240415Z AUTO 12012G18KT 2 1/2SM -UP BKN020 BKN029 BKN048 M04/M07 A3010 RMK AO2
KMXO 240355Z AUTO 13014KT 10SM SCT020 BKN027 OVC045 M04/M08 A3011 RMK AO2
KMXO 240335Z AUTO 13013G18KT 10SM FEW032 SCT050 OVC060 M04/M08 A3012 RMK AO2
KMXO 240315Z AUTO 14013G20KT 10SM FEW028 SCT040 BKN050 M04/M08 A3012 RMK AO2
KMXO 240255Z AUTO 12014KT 10SM FEW026 SCT034 BKN045 M04/M09 A3012 RMK AO2
KMXO 240235Z AUTO 12013G18KT 10SM FEW040 SCT046 OVC065 M05/M09 A3013 RMK AO2
KMXO 240215Z AUTO 12012KT 10SM FEW046 BKN065 OVC075 M05/M10 A3014 RMK AO2
KMXO 240155Z AUTO 12011KT 10SM BKN060 OVC070 M05/M11 A3015 RMK AO2
KMXO 240135Z AUTO 11011KT 10SM BKN070 OVC075 M06/M11 A3015 RMK AO2
KMXO 240115Z AUTO 11010KT 10SM BKN070 OVC095 M06/M11 A3016 RMK AO2
KMXO 240055Z AUTO 11011KT 10SM SCT075 OVC095 M06/M11 A3016 RMK AO2
KMXO 240035Z AUTO 11011G16KT 10SM SCT065 BKN075 OVC090 M06/M12 A3016 RMK AO2
KMXO 240015Z AUTO 10008KT 10SM SCT065 OVC075 M06/M12 A3017 RMK AO2
KMXO 232355Z AUTO 11010KT 10SM FEW055 BKN065 OVC090 M06/M12 A3017 RMK AO2
KMXO 232335Z AUTO 11008KT 10SM BKN060 OVC070 M06/M13 A3017 RMK AO2
KMXO 232315Z AUTO 11008KT 10SM SCT060 BKN075 M06/M13 A3018 RMK AO2
KMXO 232255Z AUTO 11007KT 10SM FEW026 FEW032 SCT039 M07/M13 A3019 RMK AO2
KMXO 232235Z AUTO 12008KT 10SM FEW019 BKN026 OVC039 M07/M14 A3020 RMK AO2
KMXO 232215Z AUTO 12007KT 10SM SCT039 BKN047 M07/M13 A3021 RMK AO2
KMXO 232155Z AUTO 11007KT 10SM FEW033 FEW039 SCT046 M07/M13 A3021 RMK AO2
KMXO 232135Z AUTO 10007KT 10SM FEW046 M07/M14 A3022 RMK AO2
KMXO 232115Z AUTO 12007KT 10SM CLR M07/M14 A3023 RMK AO2
KMXO 232055Z AUTO 13006KT 10SM CLR M07/M15 A3024 RMK AO2
KMXO 232035Z AUTO 13007KT 10SM CLR M08/M15 A3024 RMK AO2
KMXO 232015Z AUTO 13007KT 10SM CLR M08/M15 A3026 RMK AO2
KMXO 231955Z AUTO 13007KT 10SM CLR M08/M15 A3027 RMK AO2
KMXO 231935Z AUTO 15007KT 10SM CLR M08/M15 A3027 RMK AO2
KMXO 231915Z AUTO 14007KT 10SM CLR M08/M15 A3028 RMK AO2
KMXO 231855Z AUTO 15007KT 10SM CLR M08/M15 A3029 RMK AO2
KMXO 231835Z AUTO 14007KT 10SM FEW060 M09/M15 A3030 RMK AO2
KMXO 231815Z AUTO 14006KT 10SM CLR M10/M16 A3031 RMK AO2
KMXO 231755Z AUTO 14006KT 10SM CLR M10/M16 A3032 RMK AO2
KMXO 231735Z AUTO 15008KT 10SM CLR M10/M16 A3033 RMK AO2
KMXO 231715Z AUTO 15009KT 10SM CLR M11/M16 A3033 RMK AO2
KMXO 231655Z AUTO 15008KT 10SM CLR M11/M17 A3034 RMK AO2
KMXO 231635Z AUTO 13005KT 10SM SCT110 M12/M17 A3036 RMK AO2
KMXO 231615Z AUTO 14007KT 10SM SCT110 M13/M18 A3035 RMK AO2
KMXO 231555Z AUTO 16008KT 10SM FEW110 M14/M17 A3036 RMK AO2
KMXO 231515Z AUTO 00000KT 10SM CLR M18/M19 A3035 RMK AO2
KMXO 231455Z AUTO 00000KT 10SM CLR M19/M20 A3035 RMK AO2
KMXO 231435Z AUTO 00000KT 10SM CLR M19/M21 A3035 RMK AO2
KMXO 231415Z AUTO 00000KT 10SM CLR M20/M21 A3035 RMK AO2
KMXO 231355Z AUTO 00000KT 10SM CLR M21/M22 A3034 RMK AO2
KMXO 231335Z AUTO 00000KT 10SM CLR M21/M23 A3034 RMK AO2
KMXO 231315Z AUTO 11003KT 10SM CLR M21/M22 A3033 RMK AO2
KMXO 231255Z AUTO 00000KT 10SM CLR M22/M23 A3035 RMK AO2
KMXO 231235Z AUTO 00000KT 10SM CLR M22/M23 A3034 RMK AO2
KMXO 231215Z AUTO 00000KT 10SM CLR M22/M23 A3033 RMK AO2
KMXO 231155Z AUTO 00000KT 10SM CLR M22/M24 A3034 RMK AO2
KMXO 231135Z AUTO 00000KT 10SM CLR M21/M23 A3034 RMK AO2
KMXO 231115Z AUTO 00000KT 10SM CLR M21/M22 A3034 RMK AO2
KMXO 231055Z AUTO 00000KT 10SM CLR M22/M24 A3035 RMK AO2
KMXO 231035Z AUTO 00000KT 10SM CLR M21/M22 A3034 RMK AO2
KMXO 231015Z AUTO 00000KT 8SM CLR M22/M23 A3034 RMK AO2
KMXO 230955Z AUTO 00000KT 10SM CLR M21/M22 A3034 RMK AO2
KMXO 230935Z AUTO 00000KT 10SM CLR M21/M22 A3034 RMK AO2
KMXO 230915Z AUTO 00000KT 10SM CLR M20/M21 A3034 RMK AO2
KMXO 230855Z AUTO 00000KT 10SM CLR M20/M21 A3035 RMK AO2
KMXO 230835Z AUTO 00000KT 10SM CLR M20/M20 A3035 RMK AO2
KMXO 230815Z AUTO 00000KT 10SM CLR M21/M22 A3034 RMK AO2
KMXO 230755Z AUTO 00000KT 4SM BR CLR M20/M20 A3033 RMK AO2
KMXO 230735Z AUTO 00000KT 10SM CLR M20/M20 A3032 RMK AO2
KMXO 230715Z AUTO 00000KT 10SM CLR M21/M21 A3033 RMK AO2
KMXO 230655Z AUTO 00000KT 8SM CLR M19/M19 A3031 RMK AO2
KMXO 230635Z AUTO 00000KT 10SM CLR M19/M20 A3031 RMK AO2
KMXO 230615Z AUTO 00000KT 10SM CLR M19/M20 A3031 RMK AO2
KMXO 230555Z AUTO 00000KT 10SM CLR M20/M21 A3031 RMK AO2
KMXO 230535Z AUTO 00000KT 10SM CLR M19/M21 A3031 RMK AO2
KMXO 230515Z AUTO 00000KT 10SM CLR M17/M19 A3030 RMK AO2
KMXO 230455Z AUTO 00000KT 10SM CLR M18/M19 A3031 RMK AO2
KMXO 230435Z AUTO 00000KT 10SM CLR M18/M19 A3031 RMK AO2
KMXO 230415Z AUTO 00000KT 10SM CLR M19/M20 A3030 RMK AO2
KMXO 230355Z AUTO 00000KT 10SM CLR M19/M21 A3030 RMK AO2
KMXO 230335Z AUTO 00000KT 10SM CLR M16/M19 A3030 RMK AO2
KMXO 230315Z AUTO 00000KT 10SM CLR M16/M19 A3030 RMK AO2
KMXO 230255Z AUTO 00000KT 10SM CLR M18/M20 A3031 RMK AO2
KMXO 230235Z AUTO 00000KT 10SM CLR M16/M19 A3030 RMK AO2
KMXO 230215Z AUTO 00000KT 10SM CLR M16/M19 A3030 RMK AO2
KMXO 230155Z AUTO 18003KT 10SM CLR M16/M19 A3030 RMK AO2
KMXO 230135Z AUTO 00000KT 10SM CLR M15/M18 A3030 RMK AO2